Varva — A8UP7 — position and weather

sailwx.info

Track history (hours):
 
Tides and Currents Weather Stations Pressure Air Temp Water Temp Dewpoint Dewpoint Depression Visibility Wind Speed Wind Dir Waves Ship Positions

Varva

Last reported at 2015-Jun-22 04:31 UTC. Time now 2015-Jul-03 17:22 UTC.
Position N 69°54' E 033°30'.
Warning: this ship's position is 11 days out of date.

Length 224 m; draft 7.4 m.

Type: Cargo ship. MMSI: 636014536.

Date/timePositionNaut miles runAvg speedWind from/ knotsBaromVisibWave heightAir tempDewpointWater temp
2015-Jun-22 04:31N 69°54' E 033°30'  
2015-Jun-17 15:28N 58°31' E 005°08'1010.7
2015-Jun-17 14:33N 58°23' E 005°20'1010.5
2015-Jun-17 13:33N 58°17' E 005°35'111 9.8
2015-Jun-17 02:17N 57°49' E 008°57'6 8.8
2015-Jun-17 01:33N 57°49' E 009°09'8 8.4
2015-Jun-17 00:33N 57°50' E 009°25'10 8.9
2015-Jun-16 23:29N 57°50' E 009°43'38 9.7
2015-Jun-16 19:33N 57°45' E 010°53'10 9.7
2015-Jun-16 18:33N 57°38' E 011°07'1010.2
2015-Jun-16 17:33N 57°31' E 011°21'1110.3
2015-Jun-16 16:28N 57°21' E 011°31'  
2015-Jun-14 11:04N 56°28' E 011°24'0 0.0
2015-Jun-14 08:22N 56°28' E 011°24'0 0.0
2015-Jun-14 07:28N 56°28' E 011°24'0 0.0
2015-Jun-14 06:31N 56°28' E 011°24'0 0.0
2015-Jun-14 05:34N 56°28' E 011°24'0 0.0
2015-Jun-14 04:12N 56°28' E 011°24'0 0.0
2015-Jun-13 17:27N 56°28' E 011°24'0 0.0
2015-Jun-13 16:33N 56°28' E 011°24'0 0.0
2015-Jun-13 15:33N 56°28' E 011°24'0 0.1
2015-Jun-13 14:21N 56°28' E 011°24'0 0.0
2015-Jun-13 13:33N 56°28' E 011°24'0 0.0
2015-Jun-13 12:33N 56°28' E 011°24'0 0.0
2015-Jun-13 11:33N 56°28' E 011°24'0 0.2
2015-Jun-13 10:33N 56°28' E 011°24'0 0.1
2015-Jun-13 09:33N 56°28' E 011°24'0 0.0
2015-Jun-13 08:12N 56°28' E 011°24'0 0.0
2015-Jun-13 06:30N 56°28' E 011°24'0 0.0
2015-Jun-13 05:33N 56°28' E 011°24'0 0.0
2015-Jun-13 04:33N 56°28' E 011°24'0 0.0
2015-Jun-13 03:33N 56°28' E 011°24'0 0.0
2015-Jun-13 02:24N 56°28' E 011°24'0 0.0
2015-Jun-13 01:24N 56°28' E 011°24'0 0.1
2015-Jun-13 00:21N 56°28' E 011°24'0 0.0
2015-Jun-12 23:33N 56°28' E 011°24'0 0.0
2015-Jun-12 22:33N 56°28' E 011°24'0 0.0
2015-Jun-12 21:33N 56°28' E 011°24'0 0.0
2015-Jun-12 20:21N 56°28' E 011°24'0 0.0
2015-Jun-12 19:33N 56°28' E 011°24'0 0.0
2015-Jun-12 18:33N 56°28' E 011°24'0 0.0
2015-Jun-12 17:33N 56°28' E 011°24'0 0.0
2015-Jun-12 16:21N 56°28' E 011°24'0 0.0
2015-Jun-12 15:23N 56°28' E 011°24'0 0.0
2015-Jun-12 14:32N 56°28' E 011°24'0 0.0
2015-Jun-12 13:23N 56°28' E 011°24'0 0.0
2015-Jun-12 12:32N 56°28' E 011°24'0 0.0
2015-Jun-12 11:14N 56°28' E 011°24'0 0.0
2015-Jun-12 10:20N 56°28' E 011°24'0 0.0
2015-Jun-12 09:32N 56°28' E 011°24'0 0.0
2015-Jun-12 08:32N 56°28' E 011°24'0 0.0
2015-Jun-12 07:32N 56°28' E 011°24'0 0.1
2015-Jun-12 06:14N 56°28' E 011°24'0 0.1
2015-Jun-12 05:26N 56°28' E 011°24'0 0.0
2015-Jun-12 04:32N 56°28' E 011°24'  
Track history (hours):
 
Tides and Currents Weather Stations Pressure Air Temp Water Temp Dewpoint Dewpoint Depression Visibility Wind Speed Wind Dir Waves Ship Positions

Varva

Last reported at 2015-Jun-22 04:31 UTC. Time now 2015-Jul-03 17:22 UTC.
Position N 69°54' E 033°30'.
Warning: this ship's position is 11 days out of date.

Length 224 m; draft 7.4 m.

Type: Cargo ship. MMSI: 636014536.

Date/timePositionNaut miles runAvg speedWind from/ knotsBaromVisibWave heightAir tempDewpointWater temp
2015-Jun-22 04:31N 69°54' E 033°30'  
2015-Jun-17 15:28N 58°31' E 005°08'1010.7
2015-Jun-17 14:33N 58°23' E 005°20'1010.5
2015-Jun-17 13:33N 58°17' E 005°35'111 9.8
2015-Jun-17 02:17N 57°49' E 008°57'6 8.8
2015-Jun-17 01:33N 57°49' E 009°09'8 8.4
2015-Jun-17 00:33N 57°50' E 009°25'10 8.9
2015-Jun-16 23:29N 57°50' E 009°43'38 9.7
2015-Jun-16 19:33N 57°45' E 010°53'10 9.7
2015-Jun-16 18:33N 57°38' E 011°07'1010.2
2015-Jun-16 17:33N 57°31' E 011°21'1110.3
2015-Jun-16 16:28N 57°21' E 011°31'  
2015-Jun-14 11:04N 56°28' E 011°24'0 0.0
2015-Jun-14 08:22N 56°28' E 011°24'0 0.0
2015-Jun-14 07:28N 56°28' E 011°24'0 0.0
2015-Jun-14 06:31N 56°28' E 011°24'0 0.0
2015-Jun-14 05:34N 56°28' E 011°24'0 0.0
2015-Jun-14 04:12N 56°28' E 011°24'0 0.0
2015-Jun-13 17:27N 56°28' E 011°24'0 0.0
2015-Jun-13 16:33N 56°28' E 011°24'0 0.0
2015-Jun-13 15:33N 56°28' E 011°24'0 0.1
2015-Jun-13 14:21N 56°28' E 011°24'0 0.0
2015-Jun-13 13:33N 56°28' E 011°24'0 0.0
2015-Jun-13 12:33N 56°28' E 011°24'0 0.0
2015-Jun-13 11:33N 56°28' E 011°24'0 0.2
2015-Jun-13 10:33N 56°28' E 011°24'0 0.1
2015-Jun-13 09:33N 56°28' E 011°24'0 0.0
2015-Jun-13 08:12N 56°28' E 011°24'0 0.0
2015-Jun-13 06:30N 56°28' E 011°24'0 0.0
2015-Jun-13 05:33N 56°28' E 011°24'0 0.0
2015-Jun-13 04:33N 56°28' E 011°24'0 0.0
2015-Jun-13 03:33N 56°28' E 011°24'0 0.0
2015-Jun-13 02:24N 56°28' E 011°24'0 0.0
2015-Jun-13 01:24N 56°28' E 011°24'0 0.1
2015-Jun-13 00:21N 56°28' E 011°24'0 0.0
2015-Jun-12 23:33N 56°28' E 011°24'0 0.0
2015-Jun-12 22:33N 56°28' E 011°24'0 0.0
2015-Jun-12 21:33N 56°28' E 011°24'0 0.0
2015-Jun-12 20:21N 56°28' E 011°24'0 0.0
2015-Jun-12 19:33N 56°28' E 011°24'0 0.0
2015-Jun-12 18:33N 56°28' E 011°24'0 0.0
2015-Jun-12 17:33N 56°28' E 011°24'0 0.0
2015-Jun-12 16:21N 56°28' E 011°24'0 0.0
2015-Jun-12 15:23N 56°28' E 011°24'0 0.0
2015-Jun-12 14:32N 56°28' E 011°24'0 0.0
2015-Jun-12 13:23N 56°28' E 011°24'0 0.0
2015-Jun-12 12:32N 56°28' E 011°24'0 0.0
2015-Jun-12 11:14N 56°28' E 011°24'0 0.0
2015-Jun-12 10:20N 56°28' E 011°24'0 0.0
2015-Jun-12 09:32N 56°28' E 011°24'0 0.0
2015-Jun-12 08:32N 56°28' E 011°24'0 0.0
2015-Jun-12 07:32N 56°28' E 011°24'0 0.1
2015-Jun-12 06:14N 56°28' E 011°24'0 0.1
2015-Jun-12 05:26N 56°28' E 011°24'0 0.0
2015-Jun-12 04:32N 56°28' E 011°24'  

Dump ship's entire track history